RYR2MA EDDR-EDDF
Flight info
| Callsign | RYR2MA |
|---|---|
| Flight time | 0h 30m |
| Altitude | 18000 |
| Route | TOMPI2N TOMPI Q760 IDARO/N0282F090 DCT OBIGA/N0278F080 DCT RAMOB IMCOM1A |
| Aircraft | B738/M-SDE2E3FGHIRWXY/LB1 |
Departure
| Time | 2026-04-17 21:55 |
|---|---|
| Airport | Saarbrücken Airport (EDDR) |
Arrival
| Time | 2026-04-17 22:25 |
|---|---|
| Airport | Frankfurt Main Airport (EDDF) |
| Time | Latitude | Longitude | Altitude | Speed | Heading |
|---|---|---|---|---|---|
| 2026-04-17 21:38 | 49.21830 | 7.11357 | 1055 ft | 0 kts | 345° |
| 2026-04-17 21:51 | 49.21857 | 7.11347 | 1055 ft | 7 kts | 349° |
| 2026-04-17 21:51 | 49.21897 | 7.11394 | 1055 ft | 9 kts | 57° |
| 2026-04-17 21:52 | 49.21910 | 7.11489 | 1056 ft | 10 kts | 114° |
| 2026-04-17 21:52 | 49.21870 | 7.11590 | 1060 ft | 12 kts | 113° |
| 2026-04-17 21:52 | 49.21837 | 7.11718 | 1061 ft | 14 kts | 112° |
| 2026-04-17 21:52 | 49.21787 | 7.11854 | 1062 ft | 16 kts | 130° |
| 2026-04-17 21:53 | 49.21711 | 7.11989 | 1063 ft | 18 kts | 131° |
| 2026-04-17 21:53 | 49.21629 | 7.12134 | 1065 ft | 18 kts | 131° |
| 2026-04-17 21:53 | 49.21549 | 7.12276 | 1066 ft | 16 kts | 130° |
| 2026-04-17 21:53 | 49.21501 | 7.12275 | 1065 ft | 8 kts | 233° |
| 2026-04-17 21:54 | 49.21491 | 7.12220 | 1064 ft | 0 kts | 266° |
| 2026-04-17 21:54 | 49.21490 | 7.12207 | 1063 ft | 5 kts | 266° |
| 2026-04-17 21:54 | 49.21478 | 7.11810 | 1061 ft | 81 kts | 268° |
| 2026-04-17 21:54 | 49.21439 | 7.10524 | 1045 ft | 159 kts | 268° |
| 2026-04-17 21:55 | 49.21381 | 7.08647 | 1654 ft | 182 kts | 269° |
| 2026-04-17 21:55 | 49.21540 | 7.06749 | 2712 ft | 179 kts | 301° |
| 2026-04-17 21:55 | 49.22455 | 7.05630 | 3807 ft | 173 kts | 348° |
| 2026-04-17 21:55 | 49.23622 | 7.05948 | 4415 ft | 181 kts | 38° |
| 2026-04-17 21:56 | 49.24438 | 7.07420 | 5044 ft | 185 kts | 45° |
| 2026-04-17 21:56 | 49.25631 | 7.08386 | 5442 ft | 204 kts | 19° |
| 2026-04-17 21:56 | 49.26983 | 7.09193 | 5963 ft | 212 kts | 23° |
| 2026-04-17 21:56 | 49.28431 | 7.09644 | 6398 ft | 221 kts | 352° |
| 2026-04-17 21:57 | 49.30008 | 7.09088 | 6598 ft | 245 kts | 345° |
| 2026-04-17 21:57 | 49.31754 | 7.08429 | 6831 ft | 271 kts | 346° |
| 2026-04-17 21:57 | 49.33632 | 7.07751 | 7371 ft | 281 kts | 346° |
| 2026-04-17 21:57 | 49.35548 | 7.07075 | 8139 ft | 284 kts | 346° |
| 2026-04-17 21:58 | 49.36832 | 7.06626 | 8670 ft | 285 kts | 346° |
| 2026-04-17 21:58 | 49.38770 | 7.05951 | 9476 ft | 287 kts | 345° |
| 2026-04-17 21:58 | 49.40733 | 7.05276 | 10243 ft | 290 kts | 346° |
| 2026-04-17 21:58 | 49.42738 | 7.04595 | 10661 ft | 306 kts | 346° |
| 2026-04-17 21:59 | 49.45632 | 7.03623 | 10890 ft | 336 kts | 346° |
| 2026-04-17 21:59 | 49.47216 | 7.03132 | 10993 ft | 350 kts | 347° |
| 2026-04-17 21:59 | 49.49679 | 7.02389 | 11162 ft | 370 kts | 347° |
| 2026-04-17 21:59 | 49.52238 | 7.01607 | 11556 ft | 380 kts | 346° |
| 2026-04-17 22:00 | 49.54842 | 7.00761 | 12173 ft | 384 kts | 346° |
| 2026-04-17 22:00 | 49.57465 | 6.99889 | 12849 ft | 386 kts | 346° |
| 2026-04-17 22:00 | 49.60066 | 6.99021 | 13528 ft | 389 kts | 346° |
| 2026-04-17 22:00 | 49.62728 | 6.98138 | 14168 ft | 393 kts | 346° |
| 2026-04-17 22:01 | 49.65414 | 6.97249 | 14799 ft | 396 kts | 346° |
| 2026-04-17 22:01 | 49.68129 | 6.96440 | 15449 ft | 400 kts | 351° |
| 2026-04-17 22:01 | 49.70928 | 6.96355 | 16095 ft | 406 kts | 2° |
| 2026-04-17 22:01 | 49.73727 | 6.97076 | 16722 ft | 412 kts | 14° |
| 2026-04-17 22:02 | 49.76455 | 6.98507 | 17338 ft | 416 kts | 18° |
| 2026-04-17 22:02 | 49.79177 | 7.00096 | 17919 ft | 420 kts | 19° |
| 2026-04-17 22:02 | 49.81917 | 7.01717 | 18197 ft | 421 kts | 19° |
| 2026-04-17 22:02 | 49.84551 | 7.03698 | 18195 ft | 425 kts | 35° |
| 2026-04-17 22:03 | 49.86600 | 7.07012 | 18219 ft | 430 kts | 55° |
| 2026-04-17 22:03 | 49.87914 | 7.11168 | 18214 ft | 431 kts | 72° |
| 2026-04-17 22:03 | 49.88618 | 7.15684 | 18102 ft | 432 kts | 77° |
| 2026-04-17 22:03 | 49.89225 | 7.20235 | 17860 ft | 429 kts | 78° |
| 2026-04-17 22:04 | 49.89812 | 7.24758 | 17629 ft | 427 kts | 78° |
| 2026-04-17 22:04 | 49.90402 | 7.29263 | 17406 ft | 426 kts | 78° |
| 2026-04-17 22:04 | 49.91003 | 7.33751 | 17188 ft | 424 kts | 78° |
| 2026-04-17 22:04 | 49.91612 | 7.38227 | 16968 ft | 423 kts | 78° |
| 2026-04-17 22:05 | 49.92224 | 7.42686 | 16751 ft | 422 kts | 77° |
| 2026-04-17 22:05 | 49.92838 | 7.47137 | 16525 ft | 421 kts | 78° |
| 2026-04-17 22:05 | 49.93449 | 7.51576 | 16318 ft | 420 kts | 78° |
| 2026-04-17 22:05 | 49.94057 | 7.56005 | 16105 ft | 419 kts | 78° |
| 2026-04-17 22:06 | 49.94661 | 7.60423 | 15892 ft | 418 kts | 78° |
| 2026-04-17 22:06 | 49.95262 | 7.64833 | 15677 ft | 417 kts | 78° |
| 2026-04-17 22:06 | 49.95859 | 7.69224 | 15465 ft | 415 kts | 78° |
| 2026-04-17 22:06 | 49.96453 | 7.73606 | 15225 ft | 414 kts | 78° |
| 2026-04-17 22:07 | 49.97047 | 7.77997 | 14923 ft | 415 kts | 78° |
| 2026-04-17 22:07 | 49.97636 | 7.82367 | 14633 ft | 413 kts | 78° |
| 2026-04-17 22:07 | 49.98219 | 7.86705 | 14252 ft | 408 kts | 78° |
| 2026-04-17 22:07 | 49.98795 | 7.91002 | 13692 ft | 403 kts | 78° |
| 2026-04-17 22:08 | 49.99381 | 7.95173 | 13122 ft | 398 kts | 75° |
| 2026-04-17 22:08 | 50.00245 | 7.99227 | 12559 ft | 393 kts | 69° |
| 2026-04-17 22:08 | 50.01231 | 8.03172 | 12000 ft | 389 kts | 68° |
| 2026-04-17 22:08 | 50.02089 | 8.06532 | 11525 ft | 386 kts | 68° |
| 2026-04-17 22:09 | 50.03068 | 8.10398 | 10981 ft | 382 kts | 69° |
| 2026-04-17 22:09 | 50.04026 | 8.14240 | 10455 ft | 378 kts | 69° |
| 2026-04-17 22:09 | 50.04962 | 8.18047 | 9914 ft | 375 kts | 69° |
| 2026-04-17 22:09 | 50.05881 | 8.21819 | 9405 ft | 370 kts | 70° |
| 2026-04-17 22:10 | 50.06769 | 8.25480 | 8991 ft | 363 kts | 70° |
| 2026-04-17 22:10 | 50.07661 | 8.29167 | 8565 ft | 356 kts | 70° |
| 2026-04-17 22:10 | 50.08525 | 8.32744 | 8158 ft | 350 kts | 70° |
| 2026-04-17 22:10 | 50.09377 | 8.36273 | 7756 ft | 345 kts | 70° |
| 2026-04-17 22:11 | 50.10214 | 8.39751 | 7357 ft | 341 kts | 70° |
| 2026-04-17 22:11 | 50.11026 | 8.43134 | 7036 ft | 334 kts | 70° |
| 2026-04-17 22:11 | 50.11827 | 8.46477 | 6823 ft | 325 kts | 70° |
| 2026-04-17 22:11 | 50.12602 | 8.49715 | 6678 ft | 314 kts | 70° |
| 2026-04-17 22:12 | 50.13353 | 8.52854 | 6531 ft | 304 kts | 70° |
| 2026-04-17 22:12 | 50.14085 | 8.55922 | 6389 ft | 301 kts | 70° |
| 2026-04-17 22:12 | 50.14810 | 8.58962 | 6245 ft | 299 kts | 70° |
| 2026-04-17 22:12 | 50.15533 | 8.61999 | 6103 ft | 297 kts | 70° |
| 2026-04-17 22:13 | 50.16252 | 8.65024 | 5964 ft | 298 kts | 70° |
| 2026-04-17 22:13 | 50.16969 | 8.68043 | 5828 ft | 293 kts | 70° |
| 2026-04-17 22:13 | 50.17666 | 8.70981 | 5666 ft | 284 kts | 70° |
| 2026-04-17 22:13 | 50.18342 | 8.73830 | 5521 ft | 277 kts | 70° |
| 2026-04-17 22:14 | 50.19000 | 8.76607 | 5374 ft | 269 kts | 70° |
| 2026-04-17 22:14 | 50.19641 | 8.79316 | 5224 ft | 262 kts | 70° |
| 2026-04-17 22:14 | 50.20856 | 8.84477 | 4986 ft | 248 kts | 70° |
| 2026-04-17 22:14 | 50.21517 | 8.87288 | 4986 ft | 239 kts | 70° |
| 2026-04-17 22:15 | 50.22087 | 8.89716 | 4992 ft | 238 kts | 70° |
| 2026-04-17 22:15 | 50.22660 | 8.92159 | 5010 ft | 239 kts | 70° |
| 2026-04-17 22:15 | 50.23226 | 8.94575 | 5004 ft | 241 kts | 70° |
| 2026-04-17 22:15 | 50.23801 | 8.97035 | 5004 ft | 242 kts | 70° |
| 2026-04-17 22:16 | 50.24378 | 8.99503 | 5002 ft | 242 kts | 70° |
| 2026-04-17 22:16 | 50.24955 | 9.01974 | 4999 ft | 242 kts | 70° |
| 2026-04-17 22:16 | 50.25531 | 9.04444 | 5004 ft | 242 kts | 70° |
| 2026-04-17 22:16 | 50.25868 | 9.06986 | 4990 ft | 237 kts | 92° |
| 2026-04-17 22:17 | 50.25451 | 9.09401 | 4982 ft | 228 kts | 124° |
| 2026-04-17 22:17 | 50.24302 | 9.11017 | 4990 ft | 223 kts | 157° |
| 2026-04-17 22:17 | 50.22796 | 9.11362 | 5000 ft | 222 kts | 191° |
| 2026-04-17 22:17 | 50.21413 | 9.10366 | 5003 ft | 223 kts | 221° |
| 2026-04-17 22:18 | 50.20321 | 9.08632 | 5009 ft | 225 kts | 228° |
| 2026-04-17 22:18 | 50.19268 | 9.06803 | 5003 ft | 227 kts | 228° |
| 2026-04-17 22:18 | 50.18230 | 9.04980 | 4996 ft | 227 kts | 229° |
| 2026-04-17 22:18 | 50.17189 | 9.03145 | 4984 ft | 225 kts | 229° |
| 2026-04-17 22:19 | 50.16160 | 9.01331 | 4985 ft | 222 kts | 229° |
| 2026-04-17 22:19 | 50.15144 | 8.99538 | 4989 ft | 219 kts | 229° |
| 2026-04-17 22:19 | 50.14138 | 8.97764 | 4989 ft | 217 kts | 229° |
| 2026-04-17 22:19 | 50.13142 | 8.96003 | 4988 ft | 217 kts | 230° |
| 2026-04-17 22:20 | 50.12453 | 8.93952 | 4990 ft | 211 kts | 252° |
| 2026-04-17 22:20 | 50.11983 | 8.91806 | 4753 ft | 207 kts | 249° |
| 2026-04-17 22:20 | 50.11479 | 8.89741 | 4496 ft | 202 kts | 249° |
| 2026-04-17 22:20 | 50.10983 | 8.87710 | 4226 ft | 199 kts | 249° |
| 2026-04-17 22:21 | 50.10499 | 8.85713 | 3966 ft | 195 kts | 249° |
| 2026-04-17 22:21 | 50.10029 | 8.83763 | 3725 ft | 190 kts | 249° |
| 2026-04-17 22:21 | 50.09571 | 8.81862 | 3460 ft | 185 kts | 249° |
| 2026-04-17 22:21 | 50.09124 | 8.80009 | 3207 ft | 178 kts | 249° |
| 2026-04-17 22:22 | 50.08704 | 8.78263 | 2981 ft | 167 kts | 249° |
| 2026-04-17 22:22 | 50.08311 | 8.76630 | 2786 ft | 158 kts | 249° |
| 2026-04-17 22:22 | 50.07929 | 8.75040 | 2570 ft | 155 kts | 249° |
| 2026-04-17 22:22 | 50.07570 | 8.73462 | 2348 ft | 155 kts | 254° |
| 2026-04-17 22:23 | 50.07339 | 8.71822 | 2121 ft | 155 kts | 262° |
| 2026-04-17 22:23 | 50.07189 | 8.70166 | 1891 ft | 155 kts | 259° |
| 2026-04-17 22:23 | 50.06873 | 8.68570 | 1670 ft | 154 kts | 248° |
| 2026-04-17 22:23 | 50.06477 | 8.67035 | 1412 ft | 153 kts | 250° |
| 2026-04-17 22:24 | 50.06125 | 8.65486 | 1241 ft | 152 kts | 250° |
| 2026-04-17 22:24 | 50.05760 | 8.63935 | 1069 ft | 153 kts | 250° |
| 2026-04-17 22:24 | 50.05384 | 8.62391 | 855 ft | 152 kts | 250° |
| 2026-04-17 22:24 | 50.05015 | 8.60853 | 670 ft | 151 kts | 250° |
| 2026-04-17 22:25 | 50.04659 | 8.59322 | 476 ft | 150 kts | 250° |
| 2026-04-17 22:25 | 50.04302 | 8.57826 | 352 ft | 142 kts | 250° |
| 2026-04-17 22:25 | 50.04007 | 8.56602 | 353 ft | 96 kts | 250° |
| 2026-04-17 22:25 | 50.03874 | 8.56013 | 353 ft | 30 kts | 261° |
| 2026-04-17 22:26 | 50.03889 | 8.55803 | 349 ft | 12 kts | 280° |
| 2026-04-17 22:26 | 50.03897 | 8.55726 | 351 ft | 4 kts | 280° |
| 2026-04-17 22:26 | 50.03902 | 8.55687 | 348 ft | 4 kts | 280° |
| 2026-04-17 22:26 | 50.03910 | 8.55652 | 350 ft | 3 kts | 301° |
| 2026-04-17 22:27 | 50.03929 | 8.55629 | 352 ft | 3 kts | 328° |
| 2026-04-17 22:27 | 50.03952 | 8.55624 | 346 ft | 3 kts | 8° |
| 2026-04-17 22:27 | 50.03972 | 8.55642 | 346 ft | 3 kts | 44° |
| 2026-04-17 22:27 | 50.03983 | 8.55674 | 348 ft | 3 kts | 66° |
| 2026-04-17 22:28 | 50.03992 | 8.55707 | 346 ft | 4 kts | 68° |
| 2026-04-17 22:28 | 50.04008 | 8.55771 | 346 ft | 10 kts | 68° |
| 2026-04-17 22:28 | 50.04041 | 8.55902 | 349 ft | 16 kts | 69° |
| 2026-04-17 22:28 | 50.04084 | 8.56083 | 353 ft | 18 kts | 70° |
| 2026-04-17 22:29 | 50.04126 | 8.56264 | 351 ft | 17 kts | 70° |
| 2026-04-17 22:29 | 50.04170 | 8.56448 | 353 ft | 21 kts | 69° |
| 2026-04-17 22:29 | 50.04226 | 8.56681 | 352 ft | 24 kts | 69° |
| 2026-04-17 22:29 | 50.04282 | 8.56914 | 348 ft | 23 kts | 70° |
| 2026-04-17 22:30 | 50.04336 | 8.57140 | 350 ft | 22 kts | 70° |
| 2026-04-17 22:30 | 50.04388 | 8.57360 | 355 ft | 21 kts | 70° |
| 2026-04-17 22:30 | 50.04439 | 8.57573 | 351 ft | 21 kts | 70° |
| 2026-04-17 22:30 | 50.04487 | 8.57781 | 353 ft | 20 kts | 70° |
| 2026-04-17 22:31 | 50.04533 | 8.57959 | 354 ft | 17 kts | 64° |
| 2026-04-17 22:31 | 50.04615 | 8.58009 | 346 ft | 13 kts | 343° |
| 2026-04-17 22:31 | 50.04699 | 8.57957 | 349 ft | 13 kts | 338° |
| 2026-04-17 22:31 | 50.04777 | 8.57983 | 353 ft | 11 kts | 40° |
| 2026-04-17 22:32 | 50.04808 | 8.58069 | 349 ft | 9 kts | 67° |
| 2026-04-17 22:32 | 50.04832 | 8.58158 | 351 ft | 9 kts | 68° |
| 2026-04-17 22:32 | 50.04851 | 8.58244 | 348 ft | 9 kts | 71° |
| 2026-04-17 22:32 | 50.04870 | 8.58331 | 352 ft | 8 kts | 69° |
| 2026-04-17 22:33 | 50.04889 | 8.58409 | 355 ft | 3 kts | 69° |
| 2026-04-17 22:33 | 50.04897 | 8.58443 | 349 ft | 3 kts | 69° |
| 2026-04-17 22:33 | 50.04905 | 8.58476 | 353 ft | 3 kts | 69° |
| 2026-04-17 22:33 | 50.04912 | 8.58509 | 349 ft | 3 kts | 77° |
| 2026-04-17 22:34 | 50.04904 | 8.58539 | 346 ft | 3 kts | 137° |
| 2026-04-17 22:34 | 50.04884 | 8.58553 | 346 ft | 3 kts | 160° |
| 2026-04-17 22:34 | 50.04863 | 8.58565 | 352 ft | 3 kts | 161° |
| 2026-04-17 22:34 | 50.04846 | 8.58574 | 350 ft | 2 kts | 160° |
| 2026-04-17 22:35 | 50.04842 | 8.58577 | 351 ft | 0 kts | 160° |